createdAt,value
2023-01-05T00:02:02.397Z,102865.84
2023-01-05T00:04:47.741Z,102859.56
2023-01-05T00:07:14.670Z,102866.66
2023-01-05T00:09:41.788Z,102863.88
2023-01-05T00:12:34.159Z,102854.50
2023-01-05T00:15:45.512Z,102854.34
2023-01-05T00:18:32.738Z,102847.41
2023-01-05T00:21:21.309Z,102854.75
2023-01-05T00:23:49.875Z,102850.56
2023-01-05T00:26:20.061Z,102849.56
2023-01-05T00:28:47.063Z,102841.25
2023-01-05T00:31:15.035Z,102839.81
2023-01-05T00:33:42.053Z,102833.78
2023-01-05T00:36:10.123Z,102837.72
2023-01-05T00:38:37.773Z,102835.09
2023-01-05T00:41:06.695Z,102832.47
2023-01-05T00:43:33.743Z,102829.75
2023-01-05T00:46:00.921Z,102831.91
2023-01-05T00:48:27.885Z,102817.47
2023-01-05T00:50:54.897Z,102823.81
2023-01-05T00:53:21.885Z,102823.34
2023-01-05T00:56:15.812Z,102807.41
2023-01-05T00:58:42.808Z,102813.28
2023-01-05T01:01:13.379Z,102801.28
2023-01-05T01:03:40.645Z,102801.06
2023-01-05T01:06:08.268Z,102801.00
2023-01-05T01:08:35.461Z,102809.97
2023-01-05T01:11:07.745Z,102807.84
2023-01-05T01:13:35.084Z,102801.34
2023-01-05T01:16:07.941Z,102806.22
2023-01-05T01:18:36.094Z,102798.44
2023-01-05T01:21:03.545Z,102801.41
2023-01-05T01:23:30.715Z,102795.38
2023-01-05T01:25:57.676Z,102789.25
2023-01-05T01:28:24.794Z,102794.59
2023-01-05T01:30:51.919Z,102789.38
2023-01-05T01:33:19.028Z,102791.31
2023-01-05T01:35:46.758Z,102791.31
2023-01-05T01:38:13.808Z,102790.44
2023-01-05T01:40:43.244Z,102787.88
2023-01-05T01:43:40.593Z,102791.59
2023-01-05T01:46:07.636Z,102792.69
2023-01-05T01:48:36.926Z,102779.59
2023-01-05T01:51:10.951Z,102787.72
2023-01-05T01:53:42.494Z,102772.84
2023-01-05T01:56:13.805Z,102782.75
2023-01-05T01:58:41.085Z,102781.19
2023-01-05T02:01:08.896Z,102771.69
2023-01-05T02:03:36.036Z,102777.13
2023-01-05T02:06:03.968Z,102780.88
2023-01-05T02:08:33.651Z,102777.31
2023-01-05T02:11:13.065Z,102768.59
2023-01-05T02:13:39.971Z,102767.06
2023-01-05T02:16:14.267Z,102765.38
2023-01-05T02:18:58.767Z,102766.38
2023-01-05T02:21:44.156Z,102768.16
2023-01-05T02:24:20.050Z,102762.97
2023-01-05T02:26:58.572Z,102763.16
2023-01-05T02:29:59.239Z,102764.25
2023-01-05T02:32:29.936Z,102757.38
2023-01-05T02:35:09.987Z,102761.00
2023-01-05T02:37:48.978Z,102761.31
2023-01-05T02:40:22.477Z,102754.25
2023-01-05T02:42:53.043Z,102751.88
2023-01-05T02:45:23.121Z,102745.84
2023-01-05T02:47:54.786Z,102743.22
2023-01-05T02:50:32.051Z,102742.53
2023-01-05T02:53:06.331Z,102749.63
2023-01-05T02:55:40.727Z,102744.53
2023-01-05T02:58:17.769Z,102744.63
2023-01-05T03:00:50.661Z,102744.72
2023-01-05T03:03:27.290Z,102736.81
2023-01-05T03:06:01.651Z,102731.56
2023-01-05T03:08:33.056Z,102726.31
2023-01-05T03:11:24.935Z,102723.75
2023-01-05T03:14:16.135Z,102728.22
2023-01-05T03:17:02.090Z,102721.19
2023-01-05T03:19:37.113Z,102720.41
2023-01-05T03:22:29.692Z,102713.34
2023-01-05T03:25:17.685Z,102724.03
2023-01-05T03:28:06.307Z,102716.84
2023-01-05T03:31:04.837Z,102704.66
2023-01-05T03:34:03.464Z,102709.03
2023-01-05T03:36:39.440Z,102703.84
2023-01-05T03:39:12.247Z,102709.19
2023-01-05T03:41:39.925Z,102702.19
2023-01-05T03:44:08.151Z,102697.78
2023-01-05T03:46:39.230Z,102699.59
2023-01-05T03:49:09.123Z,102699.78
2023-01-05T03:51:41.691Z,102691.84
2023-01-05T03:54:10.628Z,102687.34
2023-01-05T03:56:38.697Z,102682.03
2023-01-05T03:59:06.686Z,102683.88
2023-01-05T04:01:35.083Z,102680.28
2023-01-05T04:04:03.164Z,102683.03
2023-01-05T04:06:30.326Z,102674.91
2023-01-05T04:08:58.240Z,102668.69
2023-01-05T04:11:26.132Z,102664.31
2023-01-05T04:13:58.081Z,102665.31
2023-01-05T04:16:25.720Z,102669.66
2023-01-05T04:18:55.963Z,102659.00
2023-01-05T04:21:24.341Z,102660.81
2023-01-05T04:23:54.609Z,102669.59
2023-01-05T04:26:21.743Z,102658.22
2023-01-05T04:28:50.661Z,102665.44
2023-01-05T04:31:20.245Z,102668.13
2023-01-05T04:33:48.615Z,102662.81
2023-01-05T04:36:19.481Z,102664.78
2023-01-05T04:38:46.578Z,102668.41
2023-01-05T04:41:13.988Z,102659.78
2023-01-05T04:43:45.793Z,102666.06
2023-01-05T04:46:14.464Z,102661.78
2023-01-05T04:48:44.667Z,102667.00
2023-01-05T04:51:12.774Z,102668.84
2023-01-05T04:53:39.882Z,102664.47
2023-01-05T04:56:10.936Z,102661.03
2023-01-05T04:58:43.824Z,102659.25
2023-01-05T05:01:29.510Z,102660.19
2023-01-05T05:03:58.458Z,102662.03
2023-01-05T05:06:26.348Z,102664.59
2023-01-05T05:08:55.417Z,102664.56
2023-01-05T05:11:24.042Z,102665.44
2023-01-05T05:13:51.694Z,102669.00
2023-01-05T05:16:18.739Z,102676.09
2023-01-05T05:19:04.267Z,102671.69
2023-01-05T05:21:31.337Z,102679.66
2023-01-05T05:24:17.330Z,102677.94
2023-01-05T05:26:46.199Z,102678.88
2023-01-05T05:29:13.111Z,102673.56
2023-01-05T05:31:58.622Z,102676.28
2023-01-05T05:34:25.547Z,102679.03
2023-01-05T05:36:52.798Z,102676.44
2023-01-05T05:39:20.932Z,102680.91
2023-01-05T05:44:51.496Z,102678.47
2023-01-05T05:47:20.818Z,102673.28
2023-01-05T05:49:47.824Z,102668.88
2023-01-05T05:52:14.739Z,102672.38
2023-01-05T05:54:41.716Z,102661.78
2023-01-05T05:57:08.677Z,102674.13
2023-01-05T05:59:35.714Z,102667.09
2023-01-05T06:02:02.789Z,102666.22
2023-01-05T06:04:30.067Z,102674.13
2023-01-05T06:06:57.126Z,102665.34
2023-01-05T06:10:01.249Z,102666.34
2023-01-05T06:12:29.901Z,102669.91
2023-01-05T06:14:56.885Z,102666.53
2023-01-05T06:17:26.843Z,102673.63
2023-01-05T06:19:53.886Z,102673.56
2023-01-05T06:22:20.976Z,102675.53
2023-01-05T06:24:48.114Z,102685.16
2023-01-05T06:27:18.396Z,102673.78
2023-01-05T06:29:49.342Z,102672.88
2023-01-05T06:32:16.897Z,102673.78
2023-01-05T06:34:50.331Z,102683.47
2023-01-05T06:37:17.656Z,102678.28
2023-01-05T06:39:46.074Z,102677.53
2023-01-05T06:42:33.336Z,102680.09
2023-01-05T06:45:00.419Z,102679.44
2023-01-05T06:47:28.047Z,102683.06
2023-01-05T06:50:01.543Z,102680.41
2023-01-05T06:52:29.145Z,102685.78
2023-01-05T06:54:56.094Z,102685.78
2023-01-05T07:00:13.381Z,60150.06
2023-01-05T07:02:40.491Z,60150.06
2023-01-05T07:05:08.396Z,60150.06
2023-01-05T07:07:36.020Z,60150.06
2023-01-05T07:10:03.621Z,60150.06
2023-01-05T07:12:30.635Z,60150.06
2023-01-05T07:14:57.975Z,60150.06
2023-01-05T07:17:26.224Z,60150.06
2023-01-05T07:19:53.386Z,60150.06
2023-01-05T07:22:20.581Z,60150.06
2023-01-05T07:24:47.753Z,60150.06
2023-01-05T07:27:14.706Z,60150.06
2023-01-05T07:29:41.673Z,60150.06
2023-01-05T07:32:08.622Z,60150.06
2023-01-05T07:34:35.573Z,60150.06
2023-01-05T07:37:02.517Z,60150.06
2023-01-05T07:39:48.114Z,60150.06
2023-01-05T07:42:15.483Z,60150.06
2023-01-05T07:44:43.208Z,60150.06
2023-01-05T07:47:10.153Z,60150.06
2023-01-05T07:49:37.142Z,60150.06
2023-01-05T07:52:04.349Z,60150.06
2023-01-05T07:54:31.292Z,60150.06
2023-01-05T07:56:58.303Z,60150.06
2023-01-05T07:59:25.289Z,60150.06
2023-01-05T08:01:52.428Z,60150.06
2023-01-05T08:04:19.590Z,60150.06
2023-01-05T08:06:46.549Z,60150.06
2023-01-05T08:09:32.308Z,60150.06
2023-01-05T08:11:59.320Z,60150.06
2023-01-05T08:14:26.214Z,60150.06
2023-01-05T08:16:53.254Z,60150.06
2023-01-05T08:19:20.252Z,60150.06
2023-01-05T08:21:47.135Z,60150.06
2023-01-05T08:24:14.168Z,60150.06
2023-01-05T08:26:41.214Z,60150.06
2023-01-05T08:29:08.238Z,60150.06
2023-01-05T08:31:37.794Z,60150.06
2023-01-05T08:34:05.846Z,60150.06
2023-01-05T08:36:33.449Z,60150.06
2023-01-05T08:39:03.979Z,60150.06
2023-01-05T08:41:35.816Z,60150.06
2023-01-05T08:44:05.798Z,60150.06
2023-01-05T08:46:34.759Z,60150.06
2023-01-05T08:49:06.595Z,60150.06
2023-01-05T08:54:21.993Z,60150.06
2023-01-05T08:56:50.917Z,60150.06
2023-01-05T08:59:17.764Z,60150.06
2023-01-05T09:01:44.888Z,60150.06
2023-01-05T09:04:11.911Z,60150.06
2023-01-05T09:06:38.774Z,60150.06
2023-01-05T09:09:24.644Z,60150.06
2023-01-05T09:11:52.205Z,60150.06
2023-01-05T09:14:19.312Z,60150.06
2023-01-05T09:19:52.132Z,60150.06
2023-01-05T09:22:19.248Z,60150.06
2023-01-05T09:24:46.689Z,60150.06
2023-01-05T09:27:13.700Z,60150.06
2023-01-05T09:29:40.675Z,60150.06
2023-01-05T09:32:07.888Z,60150.06
2023-01-05T09:34:34.760Z,60150.06
2023-01-05T09:37:01.834Z,60150.06
2023-01-05T09:39:29.041Z,60150.06
2023-01-05T09:42:00.629Z,60150.06
2023-01-05T09:44:37.973Z,60150.06
2023-01-05T09:47:19.430Z,60150.06
2023-01-05T09:49:49.192Z,60150.06
2023-01-05T09:52:18.884Z,60150.06
2023-01-05T09:54:46.072Z,60150.06
2023-01-05T09:57:27.050Z,60150.06
2023-01-05T10:00:03.950Z,60150.06
2023-01-05T10:02:51.593Z,60150.06
2023-01-05T10:05:20.213Z,60150.06
2023-01-05T10:08:04.212Z,60150.06
2023-01-05T10:11:09.468Z,60150.06
2023-01-05T10:13:43.305Z,60150.06
2023-01-05T10:16:17.283Z,60150.06
2023-01-05T10:18:45.756Z,60150.06
2023-01-05T10:21:31.182Z,60150.06
2023-01-05T10:24:13.522Z,60150.06
2023-01-05T10:27:25.859Z,60150.06
2023-01-05T10:30:21.479Z,60150.06
2023-01-05T10:32:50.496Z,60150.06
2023-01-05T10:35:59.059Z,60150.06
2023-01-05T10:38:24.452Z,60150.06
2023-01-05T10:41:27.310Z,60150.06
2023-01-05T10:44:12.449Z,60150.06
2023-01-05T10:46:47.288Z,60150.06
2023-01-05T10:49:28.842Z,60150.06
2023-01-05T10:52:01.762Z,60150.06
2023-01-05T10:54:45.318Z,60150.06
2023-01-05T10:57:35.318Z,60150.06
2023-01-05T11:00:09.544Z,60150.06
2023-01-05T11:02:52.987Z,60150.06
2023-01-05T11:05:42.508Z,60150.06
2023-01-05T11:08:27.664Z,60150.06
2023-01-05T11:11:01.471Z,60150.06
2023-01-05T11:13:33.164Z,60150.06
2023-01-05T11:16:13.318Z,60150.06
2023-01-05T11:18:51.401Z,60150.06
2023-01-05T11:21:23.962Z,60150.06
2023-01-05T11:23:52.378Z,60150.06
2023-01-05T11:26:21.585Z,60150.06
2023-01-05T11:29:02.347Z,60150.06
2023-01-05T11:31:35.796Z,60150.06
2023-01-05T11:34:25.985Z,60150.06
2023-01-05T11:37:05.820Z,60150.06
2023-01-05T11:39:48.933Z,60150.06
2023-01-05T11:42:25.978Z,60150.06
2023-01-05T11:44:53.309Z,60150.06
2023-01-05T11:48:05.091Z,60150.06
2023-01-05T11:50:47.745Z,60150.06
2023-01-05T11:53:40.372Z,60150.06
2023-01-05T11:56:19.550Z,60150.06
2023-01-05T11:58:48.676Z,60150.06
2023-01-05T12:01:38.645Z,60150.06
2023-01-05T12:04:26.359Z,60150.06
2023-01-05T12:07:02.359Z,60150.06
2023-01-05T12:09:34.780Z,60150.06
2023-01-05T12:12:30.220Z,60150.06
2023-01-05T12:14:59.806Z,60150.06
2023-01-05T12:17:47.199Z,60150.06
2023-01-05T12:20:25.960Z,60150.06
2023-01-05T12:23:05.178Z,60150.06
2023-01-05T12:26:16.649Z,60150.06
2023-01-05T12:29:34.385Z,60150.06
2023-01-05T12:35:23.022Z,60150.06
2023-01-05T12:38:10.848Z,60150.06
2023-01-05T12:40:47.770Z,60150.06
2023-01-05T12:43:35.789Z,60150.06
2023-01-05T12:46:13.852Z,60150.06
2023-01-05T12:48:48.920Z,60150.06
2023-01-05T12:51:34.677Z,60150.06
2023-01-05T12:54:04.404Z,60150.06
2023-01-05T12:57:00.968Z,60150.06
2023-01-05T12:59:35.130Z,60150.06
2023-01-05T13:02:07.893Z,60150.06
2023-01-05T13:04:48.617Z,60150.06
2023-01-05T13:07:45.472Z,60150.06
2023-01-05T13:10:24.241Z,60150.06
2023-01-05T13:12:57.165Z,60150.06
2023-01-05T13:15:41.764Z,60150.06
2023-01-05T13:18:14.530Z,60150.06
2023-01-05T13:20:46.553Z,60150.06
2023-01-05T13:23:28.390Z,60150.06
2023-01-05T13:26:04.341Z,60150.06
2023-01-05T13:28:33.535Z,60150.06
2023-01-05T13:31:10.360Z,60150.06
2023-01-05T13:34:19.120Z,60150.06
2023-01-05T13:37:10.369Z,60150.06
2023-01-05T13:39:52.330Z,60150.06
2023-01-05T13:42:19.184Z,60150.06
2023-01-05T13:44:57.442Z,60150.06
2023-01-05T13:47:57.339Z,60150.06
2023-01-05T13:50:52.090Z,60150.06
2023-01-05T13:55:55.753Z,60150.06
2023-01-05T13:58:39.927Z,60150.06
2023-01-05T14:01:13.763Z,60150.06
2023-01-05T14:03:52.957Z,60150.06
2023-01-05T14:06:28.167Z,60150.06
2023-01-05T14:09:00.305Z,60150.06
2023-01-05T14:11:46.890Z,60150.06
2023-01-05T14:16:59.821Z,60150.06
2023-01-05T14:19:32.677Z,60150.06
2023-01-05T14:22:05.444Z,60150.06
2023-01-05T14:24:47.881Z,60150.06
2023-01-05T14:27:19.733Z,60150.06
2023-01-05T14:30:05.007Z,60150.06
2023-01-05T14:32:31.936Z,60150.06
2023-01-05T14:35:06.742Z,60150.06
2023-01-05T14:37:41.394Z,60150.06
2023-01-05T14:40:23.562Z,60150.06
2023-01-05T14:42:51.291Z,60150.06
2023-01-05T14:45:34.929Z,60150.06
2023-01-05T14:48:05.855Z,60150.06
2023-01-05T14:50:39.483Z,60150.06
2023-01-05T14:53:35.025Z,60150.06
2023-01-05T14:56:01.869Z,60150.06
2023-01-05T14:58:37.603Z,60150.06
2023-01-05T15:01:34.279Z,60150.06
2023-01-05T15:04:29.406Z,60150.06
2023-01-05T15:07:33.672Z,60150.06
2023-01-05T15:10:12.423Z,60150.06
2023-01-05T15:12:45.271Z,60150.06
2023-01-05T15:15:49.729Z,60150.06
2023-01-05T15:21:10.344Z,60150.06
2023-01-05T15:23:43.316Z,60150.06
2023-01-05T15:26:39.464Z,60150.06
2023-01-05T15:29:27.470Z,60150.06
2023-01-05T15:32:10.997Z,60150.06
2023-01-05T15:35:22.322Z,60150.06
2023-01-05T15:37:52.203Z,60150.06
2023-01-05T15:40:37.861Z,60150.06
2023-01-05T15:43:04.928Z,60150.06
2023-01-05T15:45:43.215Z,60150.06
2023-01-05T15:48:15.661Z,60150.06
2023-01-05T15:50:48.779Z,60150.06
2023-01-05T15:53:30.772Z,60150.06
2023-01-05T15:55:58.581Z,60150.06
2023-01-05T15:58:28.169Z,60150.06
2023-01-05T16:01:10.660Z,60150.06
2023-01-05T16:03:39.483Z,60150.06
2023-01-05T16:06:16.791Z,60150.06
2023-01-05T16:08:46.992Z,60150.06
2023-01-05T16:11:26.552Z,60150.06
2023-01-05T16:14:16.092Z,60150.06
2023-01-05T16:16:54.880Z,60150.06
2023-01-05T16:19:46.475Z,60150.06
2023-01-05T16:22:16.523Z,60150.06
2023-01-05T16:25:20.000Z,60150.06
2023-01-05T16:27:50.531Z,60150.06
2023-01-05T16:30:28.578Z,60150.06
2023-01-05T16:35:55.738Z,60150.06
2023-01-05T16:38:27.860Z,60150.06
2023-01-05T16:41:01.434Z,60150.06
2023-01-05T16:43:35.492Z,60150.06
2023-01-05T16:46:25.495Z,60150.06
2023-01-05T16:49:20.372Z,60150.06
2023-01-05T16:51:47.805Z,60150.06
2023-01-05T16:54:35.101Z,60150.06
2023-01-05T16:57:05.896Z,60150.06
2023-01-05T16:59:32.754Z,60150.06
2023-01-05T17:01:59.888Z,60150.06
2023-01-05T17:04:26.929Z,60150.06
2023-01-05T17:06:54.382Z,60150.06
2023-01-05T17:09:43.248Z,60150.06
2023-01-05T17:12:12.485Z,60150.06
2023-01-05T17:14:41.560Z,60150.06
2023-01-05T17:17:12.585Z,60150.06
2023-01-05T17:19:40.403Z,60150.06
2023-01-05T17:22:10.379Z,60150.06
2023-01-05T17:24:57.772Z,60150.06
2023-01-05T17:27:24.710Z,60150.06
2023-01-05T17:32:26.656Z,60150.06
2023-01-05T17:34:53.532Z,60150.06
2023-01-05T17:37:20.490Z,60150.06
2023-01-05T17:39:47.491Z,60150.06
2023-01-05T17:44:59.972Z,60150.06
2023-01-05T17:47:26.989Z,60150.06
2023-01-05T17:49:54.339Z,60150.06
2023-01-05T17:52:28.045Z,60150.06
2023-01-05T17:54:55.447Z,60150.06
2023-01-05T17:57:22.757Z,60150.06
2023-01-05T17:59:50.082Z,60150.06
2023-01-05T18:02:16.996Z,60150.06
2023-01-05T18:04:43.929Z,60150.06
2023-01-05T18:07:11.203Z,60150.06
2023-01-05T18:09:38.213Z,60150.06
2023-01-05T18:12:05.558Z,60150.06
2023-01-05T18:14:32.518Z,60150.06
2023-01-05T18:16:59.385Z,60150.06
2023-01-05T18:19:26.361Z,60150.06
2023-01-05T18:21:53.334Z,60150.06
2023-01-05T18:24:20.359Z,60150.06
2023-01-05T18:26:53.906Z,60150.06
2023-01-05T18:29:22.666Z,60150.06
2023-01-05T18:31:49.742Z,60150.06
2023-01-05T18:34:16.729Z,60150.06
2023-01-05T18:36:43.889Z,60150.06
2023-01-05T18:39:14.123Z,60150.06
2023-01-05T18:41:41.261Z,60150.06
2023-01-05T18:44:08.394Z,60150.06
2023-01-05T18:46:35.823Z,60150.06
2023-01-05T18:49:03.003Z,60150.06
2023-01-05T18:51:29.935Z,60150.06
2023-01-05T18:53:57.077Z,60150.06
2023-01-05T18:56:24.227Z,60150.06
2023-01-05T18:58:53.286Z,60150.06
2023-01-05T19:01:21.989Z,60150.06
2023-01-05T19:03:55.816Z,60150.06
2023-01-05T19:06:25.166Z,60150.06
2023-01-05T19:08:52.721Z,60150.06
2023-01-05T19:11:25.362Z,60150.06
2023-01-05T19:13:55.425Z,60150.06
2023-01-05T19:16:24.088Z,60150.06
2023-01-05T19:18:54.045Z,60150.06
2023-01-05T19:21:22.588Z,60150.06
2023-01-05T19:23:54.310Z,60150.06
2023-01-05T19:26:21.335Z,60150.06
2023-01-05T19:28:57.046Z,60150.06
2023-01-05T19:31:25.107Z,60150.06
2023-01-05T19:34:12.116Z,60150.06
2023-01-05T19:36:39.271Z,60150.06
2023-01-05T19:39:08.975Z,60150.06
2023-01-05T19:41:46.719Z,60150.06
2023-01-05T19:44:19.160Z,60150.06
2023-01-05T19:46:49.327Z,60150.06
2023-01-05T19:49:27.577Z,60150.06
2023-01-05T19:51:55.043Z,60150.06
2023-01-05T19:54:22.934Z,60150.06
2023-01-05T19:56:49.957Z,60150.06
2023-01-05T19:59:19.298Z,60150.06
2023-01-05T20:01:46.623Z,60150.06
2023-01-05T20:04:14.271Z,60150.06
2023-01-05T20:06:48.486Z,60150.06
2023-01-05T20:09:19.023Z,60150.06
2023-01-05T20:12:15.588Z,60150.06
2023-01-05T20:14:43.418Z,60150.06
2023-01-05T20:17:12.041Z,60150.06
2023-01-05T20:19:39.831Z,60150.06
2023-01-05T20:22:14.471Z,60150.06
2023-01-05T20:24:42.522Z,60150.06
2023-01-05T20:27:13.740Z,60150.06
2023-01-05T20:29:41.300Z,60150.06
2023-01-05T20:32:12.979Z,60150.06
2023-01-05T20:34:40.724Z,60150.06
2023-01-05T20:37:27.846Z,60150.06
2023-01-05T20:40:00.517Z,60150.06
2023-01-05T20:42:46.421Z,60150.06
2023-01-05T20:45:15.349Z,60150.06
2023-01-05T20:47:47.473Z,60150.06
2023-01-05T20:50:16.498Z,60150.06
2023-01-05T20:52:43.593Z,60150.06
2023-01-05T20:55:10.939Z,60150.06
2023-01-05T20:57:38.061Z,60150.06
2023-01-05T21:00:07.217Z,60150.06
2023-01-05T21:02:52.898Z,60150.06
2023-01-05T21:05:20.311Z,60150.06
2023-01-05T21:07:48.570Z,60150.06
2023-01-05T21:10:16.398Z,60150.06
2023-01-05T21:12:43.801Z,60150.06
2023-01-05T21:15:13.469Z,60150.06
2023-01-05T21:17:40.595Z,60150.06
2023-01-05T21:20:08.184Z,60150.06
2023-01-05T21:22:35.437Z,60150.06
2023-01-05T21:25:03.087Z,60150.06
2023-01-05T21:27:30.020Z,60150.06
2023-01-05T21:29:57.039Z,60150.06
2023-01-05T21:32:24.212Z,60150.06
2023-01-05T21:34:51.709Z,60150.06
2023-01-05T21:37:37.386Z,60150.06
2023-01-05T21:40:04.985Z,60150.06
2023-01-05T21:42:40.933Z,60150.06
2023-01-05T21:45:10.540Z,60150.06
2023-01-05T21:47:38.099Z,60150.06
2023-01-05T21:50:25.287Z,60150.06
2023-01-05T21:53:13.852Z,60150.06
2023-01-05T21:55:59.559Z,60150.06
2023-01-05T21:58:26.597Z,60150.06
2023-01-05T22:00:59.408Z,60150.06
2023-01-05T22:03:28.858Z,60150.06
2023-01-05T22:05:58.023Z,60150.06
2023-01-05T22:11:00.204Z,102234.69
2023-01-05T22:13:29.602Z,102230.84
2023-01-05T22:15:56.741Z,102227.06
2023-01-05T22:18:26.466Z,102226.53
2023-01-05T22:21:01.428Z,102229.63
2023-01-05T22:23:30.236Z,102230.06
2023-01-05T22:26:03.103Z,102229.28
2023-01-05T22:28:30.612Z,102228.72
2023-01-05T22:31:06.490Z,102228.72
2023-01-05T22:33:37.605Z,102230.88
2023-01-05T22:36:07.924Z,102223.97
2023-01-05T22:38:37.302Z,102228.47
2023-01-05T22:41:06.973Z,102230.47
2023-01-05T22:43:37.204Z,102239.47
2023-01-05T22:46:08.770Z,102239.69
2023-01-05T22:48:40.572Z,102242.44
2023-01-05T22:54:06.466Z,102238.19
2023-01-05T22:56:34.688Z,102242.59
2023-01-05T22:59:12.220Z,102232.09
2023-01-05T23:01:47.357Z,102240.06
2023-01-05T23:04:15.163Z,102240.28
2023-01-05T23:06:42.833Z,102239.31
2023-01-05T23:09:13.789Z,102232.53
2023-01-05T23:11:46.252Z,102225.69
2023-01-05T23:14:15.037Z,102223.06
2023-01-05T23:17:00.389Z,102224.09
2023-01-05T23:19:30.239Z,102217.94
2023-01-05T23:21:57.563Z,102215.28
2023-01-05T23:24:24.615Z,102209.19
2023-01-05T23:26:51.777Z,102206.59
2023-01-05T23:29:18.723Z,102204.03
2023-01-05T23:31:46.335Z,102205.00
2023-01-05T23:34:15.859Z,102201.56
2023-01-05T23:36:42.766Z,102188.47
2023-01-05T23:39:09.952Z,102194.63
2023-01-05T23:41:37.056Z,102192.91
2023-01-05T23:44:04.170Z,102188.66
2023-01-05T23:46:31.295Z,102186.97
2023-01-05T23:48:58.166Z,102189.69
2023-01-05T23:51:25.441Z,102188.09
2023-01-05T23:53:55.478Z,102185.44
2023-01-05T23:56:31.075Z,102186.50
2023-01-05T23:59:05.686Z,102182.91
